sensor_id;sensor_type;location;lat;lon;timestamp;P1;durP1;ratioP1;P2;durP2;ratioP2
44658;SDS011;30378;50.186;8.644;2022-11-15T00:00:55;13.50;;;6.00;;
44658;SDS011;30378;50.186;8.644;2022-11-15T00:03:40;11.45;;;5.32;;
44658;SDS011;30378;50.186;8.644;2022-11-15T00:06:26;13.25;;;6.50;;
44658;SDS011;30378;50.186;8.644;2022-11-15T00:09:11;14.88;;;6.30;;
44658;SDS011;30378;50.186;8.644;2022-11-15T00:11:56;15.70;;;6.70;;
44658;SDS011;30378;50.186;8.644;2022-11-15T00:14:41;14.40;;;6.05;;
44658;SDS011;30378;50.186;8.644;2022-11-15T00:17:27;16.05;;;6.97;;
44658;SDS011;30378;50.186;8.644;2022-11-15T00:20:12;14.38;;;5.95;;
44658;SDS011;30378;50.186;8.644;2022-11-15T00:22:57;15.07;;;6.45;;
44658;SDS011;30378;50.186;8.644;2022-11-15T00:25:43;14.23;;;6.65;;
44658;SDS011;30378;50.186;8.644;2022-11-15T00:28:29;14.30;;;6.45;;
44658;SDS011;30378;50.186;8.644;2022-11-15T00:31:15;13.48;;;5.53;;
44658;SDS011;30378;50.186;8.644;2022-11-15T00:34:01;17.38;;;6.65;;
44658;SDS011;30378;50.186;8.644;2022-11-15T00:36:46;13.45;;;6.35;;
44658;SDS011;30378;50.186;8.644;2022-11-15T00:39:32;14.48;;;5.95;;
44658;SDS011;30378;50.186;8.644;2022-11-15T00:42:18;14.80;;;6.60;;
44658;SDS011;30378;50.186;8.644;2022-11-15T00:45:04;14.82;;;6.07;;
44658;SDS011;30378;50.186;8.644;2022-11-15T00:50:36;15.75;;;6.65;;
44658;SDS011;30378;50.186;8.644;2022-11-15T00:53:22;12.90;;;6.43;;
44658;SDS011;30378;50.186;8.644;2022-11-15T00:56:08;13.50;;;5.78;;
44658;SDS011;30378;50.186;8.644;2022-11-15T00:58:53;12.50;;;5.47;;
44658;SDS011;30378;50.186;8.644;2022-11-15T01:01:39;12.98;;;6.10;;
44658;SDS011;30378;50.186;8.644;2022-11-15T01:04:25;13.02;;;5.72;;
44658;SDS011;30378;50.186;8.644;2022-11-15T01:07:11;14.40;;;5.80;;
44658;SDS011;30378;50.186;8.644;2022-11-15T01:09:57;16.60;;;6.28;;
44658;SDS011;30378;50.186;8.644;2022-11-15T01:12:43;14.85;;;6.20;;
44658;SDS011;30378;50.186;8.644;2022-11-15T01:15:28;10.48;;;5.47;;
44658;SDS011;30378;50.186;8.644;2022-11-15T01:18:14;14.10;;;5.80;;
44658;SDS011;30378;50.186;8.644;2022-11-15T01:21:04;13.32;;;6.90;;
44658;SDS011;30378;50.186;8.644;2022-11-15T01:23:54;13.60;;;6.07;;
44658;SDS011;30378;50.186;8.644;2022-11-15T01:26:41;19.52;;;6.90;;
44658;SDS011;30378;50.186;8.644;2022-11-15T01:29:26;12.13;;;5.63;;
44658;SDS011;30378;50.186;8.644;2022-11-15T01:32:12;14.57;;;6.63;;
44658;SDS011;30378;50.186;8.644;2022-11-15T01:34:58;12.10;;;6.25;;
44658;SDS011;30378;50.186;8.644;2022-11-15T01:37:44;12.88;;;5.82;;
44658;SDS011;30378;50.186;8.644;2022-11-15T01:40:29;13.00;;;5.70;;
44658;SDS011;30378;50.186;8.644;2022-11-15T01:43:25;16.10;;;7.15;;
44658;SDS011;30378;50.186;8.644;2022-11-15T01:49:19;15.75;;;6.28;;
44658;SDS011;30378;50.186;8.644;2022-11-15T01:52:11;18.30;;;7.18;;
44658;SDS011;30378;50.186;8.644;2022-11-15T01:55:05;19.75;;;7.93;;
44658;SDS011;30378;50.186;8.644;2022-11-15T01:57:56;18.40;;;8.23;;
44658;SDS011;30378;50.186;8.644;2022-11-15T02:00:46;21.65;;;8.85;;
44658;SDS011;30378;50.186;8.644;2022-11-15T02:03:56;17.88;;;7.88;;
44658;SDS011;30378;50.186;8.644;2022-11-15T02:06:44;23.05;;;8.98;;
44658;SDS011;30378;50.186;8.644;2022-11-15T02:09:32;23.73;;;9.40;;
44658;SDS011;30378;50.186;8.644;2022-11-15T02:12:20;25.42;;;9.52;;
44658;SDS011;30378;50.186;8.644;2022-11-15T02:15:07;20.63;;;9.18;;
44658;SDS011;30378;50.186;8.644;2022-11-15T02:18:08;23.33;;;9.65;;
44658;SDS011;30378;50.186;8.644;2022-11-15T02:21:06;21.20;;;9.23;;
44658;SDS011;30378;50.186;8.644;2022-11-15T02:27:25;22.92;;;9.77;;
44658;SDS011;30378;50.186;8.644;2022-11-15T02:36:27;20.42;;;8.48;;
44658;SDS011;30378;50.186;8.644;2022-11-15T02:39:31;21.50;;;9.27;;
44658;SDS011;30378;50.186;8.644;2022-11-15T02:42:28;22.55;;;8.82;;
44658;SDS011;30378;50.186;8.644;2022-11-15T02:45:39;16.25;;;7.68;;
44658;SDS011;30378;50.186;8.644;2022-11-15T02:48:37;17.73;;;8.25;;
44658;SDS011;30378;50.186;8.644;2022-11-15T02:51:23;20.92;;;8.93;;
44658;SDS011;30378;50.186;8.644;2022-11-15T02:54:13;18.42;;;8.02;;
44658;SDS011;30378;50.186;8.644;2022-11-15T02:57:04;20.10;;;8.15;;
44658;SDS011;30378;50.186;8.644;2022-11-15T03:00:01;19.23;;;8.40;;
44658;SDS011;30378;50.186;8.644;2022-11-15T03:11:31;16.77;;;7.45;;
44658;SDS011;30378;50.186;8.644;2022-11-15T03:14:24;17.23;;;8.00;;
44658;SDS011;30378;50.186;8.644;2022-11-15T03:20:11;17.90;;;7.50;;
44658;SDS011;30378;50.186;8.644;2022-11-15T03:23:09;18.05;;;7.30;;
44658;SDS011;30378;50.186;8.644;2022-11-15T03:25:55;15.93;;;6.78;;
44658;SDS011;30378;50.186;8.644;2022-11-15T03:28:49;13.77;;;6.78;;
44658;SDS011;30378;50.186;8.644;2022-11-15T03:31:39;18.35;;;6.80;;
44658;SDS011;30378;50.186;8.644;2022-11-15T03:34:41;20.00;;;6.50;;
44658;SDS011;30378;50.186;8.644;2022-11-15T03:40:59;14.40;;;6.60;;
44658;SDS011;30378;50.186;8.644;2022-11-15T03:47:09;16.25;;;7.68;;
44658;SDS011;30378;50.186;8.644;2022-11-15T03:50:10;16.75;;;6.93;;
44658;SDS011;30378;50.186;8.644;2022-11-15T03:52:59;15.23;;;7.63;;
44658;SDS011;30378;50.186;8.644;2022-11-15T03:55:45;17.85;;;8.38;;
44658;SDS011;30378;50.186;8.644;2022-11-15T03:58:31;24.33;;;8.57;;
44658;SDS011;30378;50.186;8.644;2022-11-15T04:01:17;18.48;;;8.50;;
44658;SDS011;30378;50.186;8.644;2022-11-15T04:04:03;21.10;;;8.50;;
44658;SDS011;30378;50.186;8.644;2022-11-15T04:06:49;18.80;;;8.10;;
44658;SDS011;30378;50.186;8.644;2022-11-15T04:09:34;21.30;;;9.02;;
44658;SDS011;30378;50.186;8.644;2022-11-15T04:12:41;21.35;;;9.13;;
44658;SDS011;30378;50.186;8.644;2022-11-15T04:15:28;18.83;;;7.90;;
44658;SDS011;30378;50.186;8.644;2022-11-15T04:18:15;21.10;;;8.65;;
44658;SDS011;30378;50.186;8.644;2022-11-15T04:21:01;18.92;;;7.97;;
44658;SDS011;30378;50.186;8.644;2022-11-15T04:24:05;20.65;;;7.82;;
44658;SDS011;30378;50.186;8.644;2022-11-15T04:27:00;17.33;;;7.45;;
44658;SDS011;30378;50.186;8.644;2022-11-15T04:29:45;18.95;;;8.52;;
44658;SDS011;30378;50.186;8.644;2022-11-15T04:32:31;18.85;;;8.73;;
44658;SDS011;30378;50.186;8.644;2022-11-15T04:35:17;20.10;;;7.90;;
44658;SDS011;30378;50.186;8.644;2022-11-15T04:38:04;19.48;;;8.82;;
44658;SDS011;30378;50.186;8.644;2022-11-15T04:40:51;21.05;;;8.60;;
44658;SDS011;30378;50.186;8.644;2022-11-15T04:43:37;21.73;;;8.55;;
44658;SDS011;30378;50.186;8.644;2022-11-15T04:46:23;22.95;;;8.75;;
44658;SDS011;30378;50.186;8.644;2022-11-15T04:49:09;17.67;;;7.63;;
44658;SDS011;30378;50.186;8.644;2022-11-15T04:51:55;19.55;;;8.27;;
44658;SDS011;30378;50.186;8.644;2022-11-15T04:54:41;19.20;;;9.13;;
44658;SDS011;30378;50.186;8.644;2022-11-15T04:57:28;18.02;;;7.78;;
44658;SDS011;30378;50.186;8.644;2022-11-15T05:00:14;22.02;;;8.40;;
44658;SDS011;30378;50.186;8.644;2022-11-15T05:03:02;21.65;;;8.95;;
44658;SDS011;30378;50.186;8.644;2022-11-15T05:06:06;17.50;;;7.65;;
44658;SDS011;30378;50.186;8.644;2022-11-15T05:08:52;19.85;;;7.85;;
44658;SDS011;30378;50.186;8.644;2022-11-15T05:11:39;18.27;;;7.45;;
44658;SDS011;30378;50.186;8.644;2022-11-15T05:14:25;20.48;;;8.10;;
44658;SDS011;30378;50.186;8.644;2022-11-15T05:17:11;20.20;;;7.55;;
44658;SDS011;30378;50.186;8.644;2022-11-15T05:19:57;18.10;;;7.55;;
44658;SDS011;30378;50.186;8.644;2022-11-15T05:22:42;23.48;;;9.18;;
44658;SDS011;30378;50.186;8.644;2022-11-15T05:25:28;18.08;;;8.07;;
44658;SDS011;30378;50.186;8.644;2022-11-15T05:31:03;15.38;;;7.43;;
44658;SDS011;30378;50.186;8.644;2022-11-15T05:33:51;17.70;;;7.70;;
44658;SDS011;30378;50.186;8.644;2022-11-15T05:36:41;20.77;;;9.02;;
44658;SDS011;30378;50.186;8.644;2022-11-15T05:39:28;16.58;;;7.97;;
44658;SDS011;30378;50.186;8.644;2022-11-15T05:42:14;19.48;;;7.95;;
44658;SDS011;30378;50.186;8.644;2022-11-15T05:45:02;16.20;;;8.13;;
44658;SDS011;30378;50.186;8.644;2022-11-15T05:47:50;16.30;;;7.50;;
44658;SDS011;30378;50.186;8.644;2022-11-15T05:50:38;18.75;;;7.93;;
44658;SDS011;30378;50.186;8.644;2022-11-15T05:53:27;18.52;;;7.70;;
44658;SDS011;30378;50.186;8.644;2022-11-15T05:56:13;18.02;;;7.82;;
44658;SDS011;30378;50.186;8.644;2022-11-15T05:58:59;19.98;;;8.20;;
44658;SDS011;30378;50.186;8.644;2022-11-15T06:04:32;17.15;;;7.15;;
44658;SDS011;30378;50.186;8.644;2022-11-15T06:07:17;16.50;;;7.43;;
44658;SDS011;30378;50.186;8.644;2022-11-15T06:10:04;17.83;;;7.40;;
44658;SDS011;30378;50.186;8.644;2022-11-15T06:13:00;16.02;;;7.68;;
44658;SDS011;30378;50.186;8.644;2022-11-15T06:15:47;18.10;;;7.45;;
44658;SDS011;30378;50.186;8.644;2022-11-15T06:18:33;15.60;;;7.53;;
44658;SDS011;30378;50.186;8.644;2022-11-15T06:21:19;15.57;;;7.38;;
44658;SDS011;30378;50.186;8.644;2022-11-15T06:24:05;18.55;;;7.50;;
44658;SDS011;30378;50.186;8.644;2022-11-15T06:26:51;19.65;;;8.35;;
44658;SDS011;30378;50.186;8.644;2022-11-15T06:29:37;14.10;;;7.35;;
44658;SDS011;30378;50.186;8.644;2022-11-15T06:32:23;27.55;;;8.60;;
44658;SDS011;30378;50.186;8.644;2022-11-15T06:35:09;18.20;;;7.70;;
44658;SDS011;30378;50.186;8.644;2022-11-15T06:37:54;16.85;;;7.00;;
44658;SDS011;30378;50.186;8.644;2022-11-15T06:40:41;16.80;;;7.65;;
44658;SDS011;30378;50.186;8.644;2022-11-15T06:43:26;17.60;;;7.88;;
44658;SDS011;30378;50.186;8.644;2022-11-15T06:46:12;16.60;;;7.70;;
44658;SDS011;30378;50.186;8.644;2022-11-15T06:48:58;16.60;;;7.97;;
44658;SDS011;30378;50.186;8.644;2022-11-15T06:51:45;16.15;;;7.90;;
44658;SDS011;30378;50.186;8.644;2022-11-15T06:54:30;19.70;;;8.55;;
44658;SDS011;30378;50.186;8.644;2022-11-15T06:57:16;19.05;;;8.88;;
44658;SDS011;30378;50.186;8.644;2022-11-15T07:00:05;19.08;;;8.65;;
44658;SDS011;30378;50.186;8.644;2022-11-15T07:02:51;20.75;;;8.65;;
44658;SDS011;30378;50.186;8.644;2022-11-15T07:05:37;19.15;;;8.02;;
44658;SDS011;30378;50.186;8.644;2022-11-15T07:08:23;14.55;;;6.88;;
44658;SDS011;30378;50.186;8.644;2022-11-15T07:13:54;14.25;;;6.00;;
44658;SDS011;30378;50.186;8.644;2022-11-15T07:16:40;14.90;;;6.82;;
44658;SDS011;30378;50.186;8.644;2022-11-15T07:19:26;16.33;;;6.38;;
44658;SDS011;30378;50.186;8.644;2022-11-15T07:22:12;18.33;;;7.72;;
44658;SDS011;30378;50.186;8.644;2022-11-15T07:24:58;16.00;;;7.97;;
44658;SDS011;30378;50.186;8.644;2022-11-15T07:27:44;16.88;;;7.93;;
44658;SDS011;30378;50.186;8.644;2022-11-15T07:30:39;16.15;;;7.35;;
44658;SDS011;30378;50.186;8.644;2022-11-15T07:33:28;15.35;;;7.22;;
44658;SDS011;30378;50.186;8.644;2022-11-15T07:36:13;14.35;;;5.85;;
44658;SDS011;30378;50.186;8.644;2022-11-15T07:38:59;11.57;;;5.38;;
44658;SDS011;30378;50.186;8.644;2022-11-15T07:41:45;14.85;;;6.10;;
44658;SDS011;30378;50.186;8.644;2022-11-15T07:44:33;13.23;;;5.95;;
44658;SDS011;30378;50.186;8.644;2022-11-15T07:47:18;16.40;;;6.43;;
44658;SDS011;30378;50.186;8.644;2022-11-15T07:50:05;9.85;;;4.55;;
44658;SDS011;30378;50.186;8.644;2022-11-15T07:52:55;8.73;;;4.43;;
44658;SDS011;30378;50.186;8.644;2022-11-15T07:55:41;11.10;;;5.15;;
44658;SDS011;30378;50.186;8.644;2022-11-15T07:58:27;9.20;;;4.72;;
44658;SDS011;30378;50.186;8.644;2022-11-15T08:01:13;10.27;;;4.72;;
44658;SDS011;30378;50.186;8.644;2022-11-15T08:03:59;10.50;;;4.72;;
44658;SDS011;30378;50.186;8.644;2022-11-15T08:06:44;10.57;;;5.03;;
44658;SDS011;30378;50.186;8.644;2022-11-15T08:09:31;9.40;;;4.05;;
44658;SDS011;30378;50.186;8.644;2022-11-15T08:12:17;8.50;;;4.35;;
44658;SDS011;30378;50.186;8.644;2022-11-15T08:15:02;9.05;;;3.92;;
44658;SDS011;30378;50.186;8.644;2022-11-15T08:17:52;11.05;;;4.18;;
44658;SDS011;30378;50.186;8.644;2022-11-15T08:20:39;8.65;;;4.28;;
44658;SDS011;30378;50.186;8.644;2022-11-15T08:23:25;7.97;;;3.67;;
44658;SDS011;30378;50.186;8.644;2022-11-15T08:26:11;7.05;;;3.33;;
44658;SDS011;30378;50.186;8.644;2022-11-15T08:28:57;7.35;;;3.25;;
44658;SDS011;30378;50.186;8.644;2022-11-15T08:31:42;11.52;;;3.53;;
44658;SDS011;30378;50.186;8.644;2022-11-15T08:34:28;6.18;;;3.22;;
44658;SDS011;30378;50.186;8.644;2022-11-15T08:37:14;10.73;;;3.95;;
44658;SDS011;30378;50.186;8.644;2022-11-15T08:40:00;10.43;;;3.47;;
44658;SDS011;30378;50.186;8.644;2022-11-15T08:42:46;7.20;;;3.47;;
44658;SDS011;30378;50.186;8.644;2022-11-15T08:45:33;9.07;;;3.95;;
44658;SDS011;30378;50.186;8.644;2022-11-15T08:48:20;7.68;;;3.58;;
44658;SDS011;30378;50.186;8.644;2022-11-15T08:51:05;9.10;;;3.72;;
44658;SDS011;30378;50.186;8.644;2022-11-15T08:53:51;10.00;;;4.15;;
44658;SDS011;30378;50.186;8.644;2022-11-15T08:56:37;6.45;;;3.65;;
44658;SDS011;30378;50.186;8.644;2022-11-15T09:02:11;10.70;;;4.22;;
44658;SDS011;30378;50.186;8.644;2022-11-15T09:05:00;8.18;;;4.13;;
44658;SDS011;30378;50.186;8.644;2022-11-15T09:07:46;7.78;;;3.83;;
44658;SDS011;30378;50.186;8.644;2022-11-15T09:10:32;11.43;;;3.90;;
44658;SDS011;30378;50.186;8.644;2022-11-15T09:13:18;8.45;;;4.18;;
44658;SDS011;30378;50.186;8.644;2022-11-15T09:16:04;8.20;;;4.13;;
44658;SDS011;30378;50.186;8.644;2022-11-15T09:18:50;10.18;;;4.65;;
44658;SDS011;30378;50.186;8.644;2022-11-15T09:21:36;11.85;;;4.57;;
44658;SDS011;30378;50.186;8.644;2022-11-15T09:24:22;9.23;;;4.22;;
44658;SDS011;30378;50.186;8.644;2022-11-15T09:27:08;8.55;;;4.43;;
44658;SDS011;30378;50.186;8.644;2022-11-15T09:29:54;10.07;;;4.68;;
44658;SDS011;30378;50.186;8.644;2022-11-15T09:32:39;9.23;;;4.93;;
44658;SDS011;30378;50.186;8.644;2022-11-15T09:35:25;12.13;;;4.70;;
44658;SDS011;30378;50.186;8.644;2022-11-15T09:38:11;9.88;;;4.57;;
44658;SDS011;30378;50.186;8.644;2022-11-15T09:50:14;8.85;;;4.82;;
44658;SDS011;30378;50.186;8.644;2022-11-15T09:52:46;10.73;;;5.15;;
44658;SDS011;30378;50.186;8.644;2022-11-15T09:55:14;10.32;;;4.35;;
44658;SDS011;30378;50.186;8.644;2022-11-15T09:57:54;12.27;;;4.97;;
44658;SDS011;30378;50.186;8.644;2022-11-15T10:00:35;13.70;;;4.70;;
44658;SDS011;30378;50.186;8.644;2022-11-15T10:03:14;9.07;;;4.13;;
44658;SDS011;30378;50.186;8.644;2022-11-15T10:05:45;11.27;;;4.68;;
44658;SDS011;30378;50.186;8.644;2022-11-15T10:10:47;9.18;;;4.38;;
44658;SDS011;30378;50.186;8.644;2022-11-15T10:13:58;12.45;;;4.45;;
44658;SDS011;30378;50.186;8.644;2022-11-15T10:21:56;7.05;;;3.90;;
44658;SDS011;30378;50.186;8.644;2022-11-15T10:24:45;11.27;;;4.00;;
44658;SDS011;30378;50.186;8.644;2022-11-15T10:27:17;8.25;;;4.53;;
44658;SDS011;30378;50.186;8.644;2022-11-15T10:29:48;8.45;;;3.67;;
44658;SDS011;30378;50.186;8.644;2022-11-15T10:32:18;8.68;;;4.30;;
44658;SDS011;30378;50.186;8.644;2022-11-15T10:34:48;9.50;;;4.32;;
44658;SDS011;30378;50.186;8.644;2022-11-15T10:37:29;8.07;;;4.38;;
44658;SDS011;30378;50.186;8.644;2022-11-15T10:40:04;8.70;;;4.30;;
44658;SDS011;30378;50.186;8.644;2022-11-15T10:42:49;9.00;;;4.03;;
44658;SDS011;30378;50.186;8.644;2022-11-15T10:45:37;9.38;;;4.47;;
44658;SDS011;30378;50.186;8.644;2022-11-15T10:50:39;9.80;;;4.13;;
44658;SDS011;30378;50.186;8.644;2022-11-15T10:53:16;14.38;;;4.57;;
44658;SDS011;30378;50.186;8.644;2022-11-15T10:55:54;9.27;;;4.70;;
44658;SDS011;30378;50.186;8.644;2022-11-15T10:58:34;9.68;;;4.20;;
44658;SDS011;30378;50.186;8.644;2022-11-15T11:03:44;7.45;;;4.07;;
44658;SDS011;30378;50.186;8.644;2022-11-15T11:06:45;8.43;;;4.00;;
44658;SDS011;30378;50.186;8.644;2022-11-15T11:09:35;8.18;;;4.07;;
44658;SDS011;30378;50.186;8.644;2022-11-15T11:12:05;7.78;;;3.85;;
44658;SDS011;30378;50.186;8.644;2022-11-15T11:14:37;8.52;;;4.13;;
44658;SDS011;30378;50.186;8.644;2022-11-15T11:17:09;10.35;;;4.20;;
44658;SDS011;30378;50.186;8.644;2022-11-15T11:33:24;6.75;;;2.90;;
44658;SDS011;30378;50.186;8.644;2022-11-15T11:36:03;5.57;;;2.65;;
44658;SDS011;30378;50.186;8.644;2022-11-15T11:42:03;7.63;;;3.03;;
44658;SDS011;30378;50.186;8.644;2022-11-15T11:47:31;7.40;;;3.00;;
44658;SDS011;30378;50.186;8.644;2022-11-15T11:50:11;6.35;;;3.03;;
44658;SDS011;30378;50.186;8.644;2022-11-15T11:52:51;7.18;;;3.83;;
44658;SDS011;30378;50.186;8.644;2022-11-15T12:01:13;18.70;;;3.50;;
44658;SDS011;30378;50.186;8.644;2022-11-15T12:04:01;7.05;;;3.05;;
44658;SDS011;30378;50.186;8.644;2022-11-15T12:06:42;6.55;;;2.42;;
44658;SDS011;30378;50.186;8.644;2022-11-15T12:17:24;7.57;;;2.72;;
44658;SDS011;30378;50.186;8.644;2022-11-15T12:19:59;6.68;;;2.50;;
44658;SDS011;30378;50.186;8.644;2022-11-15T12:30:51;6.82;;;3.00;;
44658;SDS011;30378;50.186;8.644;2022-11-15T12:33:32;6.07;;;2.25;;
44658;SDS011;30378;50.186;8.644;2022-11-15T12:36:12;6.95;;;2.28;;
44658;SDS011;30378;50.186;8.644;2022-11-15T12:39:08;5.47;;;2.00;;
44658;SDS011;30378;50.186;8.644;2022-11-15T12:41:40;4.43;;;2.35;;
44658;SDS011;30378;50.186;8.644;2022-11-15T12:44:13;8.40;;;3.08;;
44658;SDS011;30378;50.186;8.644;2022-11-15T12:47:21;4.78;;;2.13;;
44658;SDS011;30378;50.186;8.644;2022-11-15T12:49:51;5.50;;;2.17;;
44658;SDS011;30378;50.186;8.644;2022-11-15T12:52:18;7.72;;;2.60;;
44658;SDS011;30378;50.186;8.644;2022-11-15T12:54:50;5.05;;;2.20;;
44658;SDS011;30378;50.186;8.644;2022-11-15T13:02:27;5.45;;;2.20;;
44658;SDS011;30378;50.186;8.644;2022-11-15T13:10:28;6.97;;;2.33;;
44658;SDS011;30378;50.186;8.644;2022-11-15T13:13:02;9.23;;;3.97;;
44658;SDS011;30378;50.186;8.644;2022-11-15T13:20:59;5.55;;;2.92;;
44658;SDS011;30378;50.186;8.644;2022-11-15T13:23:28;5.30;;;2.45;;
44658;SDS011;30378;50.186;8.644;2022-11-15T13:28:44;6.57;;;2.70;;
44658;SDS011;30378;50.186;8.644;2022-11-15T13:33:51;7.32;;;2.97;;
44658;SDS011;30378;50.186;8.644;2022-11-15T13:36:21;7.43;;;2.88;;
44658;SDS011;30378;50.186;8.644;2022-11-15T13:38:54;6.03;;;2.63;;
44658;SDS011;30378;50.186;8.644;2022-11-15T13:41:26;8.05;;;4.13;;
44658;SDS011;30378;50.186;8.644;2022-11-15T13:43:59;5.97;;;2.67;;
44658;SDS011;30378;50.186;8.644;2022-11-15T13:46:28;8.27;;;2.78;;
44658;SDS011;30378;50.186;8.644;2022-11-15T13:49:07;6.88;;;2.78;;
44658;SDS011;30378;50.186;8.644;2022-11-15T13:51:49;6.65;;;2.88;;
44658;SDS011;30378;50.186;8.644;2022-11-15T13:54:21;8.38;;;3.65;;
44658;SDS011;30378;50.186;8.644;2022-11-15T13:57:15;7.35;;;3.33;;
44658;SDS011;30378;50.186;8.644;2022-11-15T13:59:52;6.85;;;3.38;;
44658;SDS011;30378;50.186;8.644;2022-11-15T14:02:37;6.78;;;3.15;;
44658;SDS011;30378;50.186;8.644;2022-11-15T14:05:15;7.65;;;3.38;;
44658;SDS011;30378;50.186;8.644;2022-11-15T14:07:54;8.40;;;3.72;;
44658;SDS011;30378;50.186;8.644;2022-11-15T14:10:33;8.15;;;3.63;;
44658;SDS011;30378;50.186;8.644;2022-11-15T14:15:34;8.85;;;3.03;;
44658;SDS011;30378;50.186;8.644;2022-11-15T14:18:03;6.15;;;3.10;;
44658;SDS011;30378;50.186;8.644;2022-11-15T14:23:02;9.18;;;3.58;;
44658;SDS011;30378;50.186;8.644;2022-11-15T14:25:32;12.23;;;4.07;;
44658;SDS011;30378;50.186;8.644;2022-11-15T14:30:49;6.45;;;3.20;;
44658;SDS011;30378;50.186;8.644;2022-11-15T14:33:20;8.15;;;4.10;;
44658;SDS011;30378;50.186;8.644;2022-11-15T14:35:50;7.97;;;3.03;;
44658;SDS011;30378;50.186;8.644;2022-11-15T14:38:18;8.70;;;3.38;;
44658;SDS011;30378;50.186;8.644;2022-11-15T14:40:45;7.07;;;3.28;;
44658;SDS011;30378;50.186;8.644;2022-11-15T14:43:14;8.77;;;3.40;;
44658;SDS011;30378;50.186;8.644;2022-11-15T14:45:41;6.75;;;3.15;;
44658;SDS011;30378;50.186;8.644;2022-11-15T14:48:09;7.45;;;3.20;;
44658;SDS011;30378;50.186;8.644;2022-11-15T14:50:36;7.63;;;3.00;;
44658;SDS011;30378;50.186;8.644;2022-11-15T14:53:04;7.47;;;2.38;;
44658;SDS011;30378;50.186;8.644;2022-11-15T14:55:33;7.60;;;3.15;;
44658;SDS011;30378;50.186;8.644;2022-11-15T14:58:03;9.25;;;2.95;;
44658;SDS011;30378;50.186;8.644;2022-11-15T15:00:31;12.70;;;3.72;;
44658;SDS011;30378;50.186;8.644;2022-11-15T15:03:00;5.70;;;2.90;;
44658;SDS011;30378;50.186;8.644;2022-11-15T15:05:38;7.88;;;2.78;;
44658;SDS011;30378;50.186;8.644;2022-11-15T15:08:07;9.52;;;2.90;;
44658;SDS011;30378;50.186;8.644;2022-11-15T15:10:42;7.88;;;2.85;;
44658;SDS011;30378;50.186;8.644;2022-11-15T15:13:20;6.68;;;2.83;;
44658;SDS011;30378;50.186;8.644;2022-11-15T15:15:50;4.95;;;2.50;;
44658;SDS011;30378;50.186;8.644;2022-11-15T15:18:18;6.68;;;2.72;;
44658;SDS011;30378;50.186;8.644;2022-11-15T15:20:47;9.07;;;2.65;;
44658;SDS011;30378;50.186;8.644;2022-11-15T15:23:26;5.95;;;2.63;;
44658;SDS011;30378;50.186;8.644;2022-11-15T15:25:56;6.25;;;2.63;;
44658;SDS011;30378;50.186;8.644;2022-11-15T15:28:23;9.75;;;2.80;;
44658;SDS011;30378;50.186;8.644;2022-11-15T15:30:52;8.65;;;2.72;;
44658;SDS011;30378;50.186;8.644;2022-11-15T15:33:19;6.25;;;2.47;;
44658;SDS011;30378;50.186;8.644;2022-11-15T15:35:46;6.22;;;2.53;;
44658;SDS011;30378;50.186;8.644;2022-11-15T15:38:14;4.85;;;2.13;;
44658;SDS011;30378;50.186;8.644;2022-11-15T15:40:42;7.05;;;2.80;;
44658;SDS011;30378;50.186;8.644;2022-11-15T15:43:09;6.30;;;2.67;;
44658;SDS011;30378;50.186;8.644;2022-11-15T15:45:37;9.82;;;2.97;;
44658;SDS011;30378;50.186;8.644;2022-11-15T15:48:13;7.15;;;3.17;;
44658;SDS011;30378;50.186;8.644;2022-11-15T15:50:42;9.93;;;4.15;;
44658;SDS011;30378;50.186;8.644;2022-11-15T15:53:10;8.63;;;3.33;;
44658;SDS011;30378;50.186;8.644;2022-11-15T15:55:38;7.20;;;2.90;;
44658;SDS011;30378;50.186;8.644;2022-11-15T15:58:05;6.82;;;2.78;;
44658;SDS011;30378;50.186;8.644;2022-11-15T16:00:33;7.15;;;3.17;;
44658;SDS011;30378;50.186;8.644;2022-11-15T16:03:00;6.05;;;2.80;;
44658;SDS011;30378;50.186;8.644;2022-11-15T16:05:27;11.88;;;2.95;;
44658;SDS011;30378;50.186;8.644;2022-11-15T16:07:54;8.80;;;3.22;;
44658;SDS011;30378;50.186;8.644;2022-11-15T16:10:25;10.02;;;4.13;;
44658;SDS011;30378;50.186;8.644;2022-11-15T16:12:54;11.38;;;4.15;;
44658;SDS011;30378;50.186;8.644;2022-11-15T16:15:24;6.88;;;3.50;;
44658;SDS011;30378;50.186;8.644;2022-11-15T16:17:54;9.18;;;4.05;;
44658;SDS011;30378;50.186;8.644;2022-11-15T16:23:00;9.52;;;4.10;;
44658;SDS011;30378;50.186;8.644;2022-11-15T16:25:35;8.98;;;3.92;;
44658;SDS011;30378;50.186;8.644;2022-11-15T16:28:27;9.02;;;3.80;;
44658;SDS011;30378;50.186;8.644;2022-11-15T16:31:02;9.90;;;4.45;;
44658;SDS011;30378;50.186;8.644;2022-11-15T16:33:31;11.77;;;4.95;;
44658;SDS011;30378;50.186;8.644;2022-11-15T16:35:59;10.13;;;5.05;;
44658;SDS011;30378;50.186;8.644;2022-11-15T16:38:26;11.63;;;5.47;;
44658;SDS011;30378;50.186;8.644;2022-11-15T16:43:20;11.88;;;5.43;;
44658;SDS011;30378;50.186;8.644;2022-11-15T16:45:48;10.98;;;5.07;;
44658;SDS011;30378;50.186;8.644;2022-11-15T16:48:24;12.90;;;6.15;;
44658;SDS011;30378;50.186;8.644;2022-11-15T16:50:55;12.82;;;5.30;;
44658;SDS011;30378;50.186;8.644;2022-11-15T16:53:24;11.85;;;5.70;;
44658;SDS011;30378;50.186;8.644;2022-11-15T16:55:56;11.32;;;4.97;;
44658;SDS011;30378;50.186;8.644;2022-11-15T16:58:23;15.38;;;5.53;;
44658;SDS011;30378;50.186;8.644;2022-11-15T17:00:51;11.95;;;5.47;;
44658;SDS011;30378;50.186;8.644;2022-11-15T17:03:20;12.93;;;5.60;;
44658;SDS011;30378;50.186;8.644;2022-11-15T17:05:48;10.55;;;5.00;;
44658;SDS011;30378;50.186;8.644;2022-11-15T17:08:15;14.75;;;5.13;;
44658;SDS011;30378;50.186;8.644;2022-11-15T17:10:42;12.10;;;5.30;;
44658;SDS011;30378;50.186;8.644;2022-11-15T17:13:12;11.50;;;5.13;;
44658;SDS011;30378;50.186;8.644;2022-11-15T17:15:40;12.00;;;5.35;;
44658;SDS011;30378;50.186;8.644;2022-11-15T17:18:09;12.23;;;4.78;;
44658;SDS011;30378;50.186;8.644;2022-11-15T17:20:39;13.32;;;5.60;;
44658;SDS011;30378;50.186;8.644;2022-11-15T17:23:10;11.75;;;5.32;;
44658;SDS011;30378;50.186;8.644;2022-11-15T17:25:40;12.48;;;5.35;;
44658;SDS011;30378;50.186;8.644;2022-11-15T17:28:07;10.85;;;5.30;;
44658;SDS011;30378;50.186;8.644;2022-11-15T17:30:34;11.82;;;5.22;;
44658;SDS011;30378;50.186;8.644;2022-11-15T17:33:01;14.85;;;5.47;;
44658;SDS011;30378;50.186;8.644;2022-11-15T17:35:28;11.82;;;5.60;;
44658;SDS011;30378;50.186;8.644;2022-11-15T17:37:56;12.07;;;5.38;;
44658;SDS011;30378;50.186;8.644;2022-11-15T17:40:23;12.52;;;6.03;;
44658;SDS011;30378;50.186;8.644;2022-11-15T17:45:17;11.38;;;5.28;;
44658;SDS011;30378;50.186;8.644;2022-11-15T17:47:44;11.70;;;5.35;;
44658;SDS011;30378;50.186;8.644;2022-11-15T17:52:39;13.85;;;5.80;;
44658;SDS011;30378;50.186;8.644;2022-11-15T17:55:06;12.65;;;5.47;;
44658;SDS011;30378;50.186;8.644;2022-11-15T17:57:33;12.75;;;6.05;;
44658;SDS011;30378;50.186;8.644;2022-11-15T18:00:00;14.65;;;5.60;;
44658;SDS011;30378;50.186;8.644;2022-11-15T18:02:29;13.43;;;6.43;;
44658;SDS011;30378;50.186;8.644;2022-11-15T18:04:56;11.50;;;5.72;;
44658;SDS011;30378;50.186;8.644;2022-11-15T18:07:23;17.50;;;6.88;;
44658;SDS011;30378;50.186;8.644;2022-11-15T18:09:51;13.18;;;6.00;;
44658;SDS011;30378;50.186;8.644;2022-11-15T18:12:18;18.58;;;7.05;;
44658;SDS011;30378;50.186;8.644;2022-11-15T18:14:45;13.75;;;6.70;;
44658;SDS011;30378;50.186;8.644;2022-11-15T18:19:40;14.48;;;6.63;;
44658;SDS011;30378;50.186;8.644;2022-11-15T18:24:36;14.35;;;6.35;;
44658;SDS011;30378;50.186;8.644;2022-11-15T18:27:08;12.45;;;5.45;;
44658;SDS011;30378;50.186;8.644;2022-11-15T18:29:35;15.00;;;6.10;;
44658;SDS011;30378;50.186;8.644;2022-11-15T18:32:04;11.50;;;5.68;;